Franzen, Wisconsin
Current Conditions -  °F | °C
As of 10:15 AM on Wednesday 28 Jan 2015 (Local Time) from KAIG Reporting Station
Overcast Overcast  
Wind Chill: 11°   Ceiling: 1000
Heat Index: 23°   Visibility: 10mi
Dew Point: 19°   Wind: 12mph
Humidity: 87%   Direction: 170°S
Pressure: 30.1"   Gusts: NA
Location:  44.8179°N, 89.172°W
Report Text: KAIG 281615Z AUTO 17010KT 10SM OVC010 M05/M07 A3010 RMK AO2 T10521070
Loading
Personal Weather Stations






























Interactive Weather Map New forecast layout! Learn more

10-Day Weather Forecast

Advertisements
Track Severe Weather on mobile